createdAt,value
2022-10-30T00:00:47.880Z,10.60
2022-10-30T00:03:19.161Z,10.20
2022-10-30T00:08:22.459Z,10.80
2022-10-30T00:10:53.134Z,11.90
2022-10-30T00:13:23.876Z,11.50
2022-10-30T00:15:55.147Z,10.50
2022-10-30T00:20:54.311Z,11.00
2022-10-30T00:23:24.823Z,12.20
2022-10-30T00:25:55.227Z,12.80
2022-10-30T00:28:25.705Z,12.90
2022-10-30T00:30:59.373Z,11.90
2022-10-30T00:33:29.757Z,12.20
2022-10-30T00:36:00.861Z,12.60
2022-10-30T00:38:31.272Z,12.40
2022-10-30T00:41:01.665Z,13.30
2022-10-30T00:43:35.215Z,12.20
2022-10-30T00:46:15.067Z,11.50
2022-10-30T00:48:49.058Z,10.70
2022-10-30T00:51:21.216Z,9.30
2022-10-30T00:53:53.631Z,10.70
2022-10-30T00:56:25.404Z,9.70
2022-10-30T00:58:59.839Z,11.00
2022-10-30T01:01:34.803Z,13.50
2022-10-30T01:04:07.128Z,11.40
2022-10-30T01:06:41.116Z,9.70
2022-10-30T01:09:11.879Z,11.30
2022-10-30T01:11:42.322Z,12.40
2022-10-30T01:14:15.168Z,12.20
2022-10-30T01:17:09.962Z,12.80
2022-10-30T01:19:49.899Z,10.50
2022-10-30T01:22:38.674Z,11.50
2022-10-30T01:25:24.112Z,9.90
2022-10-30T01:28:12.863Z,9.90
2022-10-30T01:33:42.996Z,11.50
2022-10-30T01:36:20.395Z,11.20
2022-10-30T01:38:55.305Z,10.70
2022-10-30T01:41:25.725Z,10.70
2022-10-30T01:44:01.459Z,11.80
2022-10-30T01:46:45.927Z,10.50
2022-10-30T01:49:32.683Z,10.80
2022-10-30T01:52:12.767Z,11.10
2022-10-30T01:54:54.040Z,10.90
2022-10-30T01:57:38.612Z,10.20
2022-10-30T02:00:14.629Z,11.20
2022-10-30T02:02:49.933Z,10.50
2022-10-30T02:05:31.205Z,10.10
2022-10-30T02:08:02.486Z,10.30
2022-10-30T02:10:38.017Z,10.00
2022-10-30T02:13:08.442Z,10.30
2022-10-30T02:15:39.771Z,11.40
2022-10-30T02:20:39.717Z,10.70
2022-10-30T02:23:13.563Z,10.20
2022-10-30T02:25:44.056Z,11.00
2022-10-30T02:28:14.717Z,10.70
2022-10-30T02:30:45.191Z,11.10
2022-10-30T02:33:15.629Z,11.00
2022-10-30T02:35:45.985Z,10.30
2022-10-30T02:38:16.318Z,10.10
2022-10-30T02:40:47.166Z,14.60
2022-10-30T02:43:17.488Z,10.50
2022-10-30T02:45:52.853Z,10.70
2022-10-30T02:48:23.550Z,12.90
2022-10-30T02:50:53.935Z,13.50
2022-10-30T02:53:24.471Z,10.30
2022-10-30T02:55:54.841Z,10.70
2022-10-30T03:00:54.931Z,11.30
2022-10-30T03:03:25.502Z,12.20
2022-10-30T03:05:55.950Z,11.40
2022-10-30T03:08:26.517Z,11.10
2022-10-30T03:11:02.229Z,10.90
2022-10-30T03:13:34.417Z,12.60
2022-10-30T03:16:08.489Z,12.00
2022-10-30T03:18:39.469Z,11.30
2022-10-30T03:21:15.703Z,11.80
2022-10-30T03:23:50.430Z,12.30
2022-10-30T03:26:22.994Z,10.90
2022-10-30T03:28:55.460Z,10.90
2022-10-30T03:31:25.935Z,12.40
2022-10-30T03:34:11.377Z,11.40
2022-10-30T03:36:43.058Z,12.80
2022-10-30T03:39:13.737Z,13.10
2022-10-30T03:41:46.460Z,10.90
2022-10-30T03:44:16.797Z,12.70
2022-10-30T03:46:47.455Z,10.90
2022-10-30T03:49:32.044Z,12.60
2022-10-30T03:52:03.001Z,11.70
2022-10-30T03:54:33.863Z,11.50
2022-10-30T03:57:04.360Z,10.60
2022-10-30T03:59:42.799Z,11.00
2022-10-30T04:02:32.037Z,10.90
2022-10-30T04:05:02.481Z,10.70
2022-10-30T04:07:32.959Z,11.40
2022-10-30T04:10:03.460Z,12.40
2022-10-30T04:12:33.883Z,11.70
2022-10-30T04:15:04.361Z,11.90
2022-10-30T04:17:34.764Z,12.60
2022-10-30T04:20:09.138Z,10.60
2022-10-30T04:22:39.496Z,11.20
2022-10-30T04:25:11.103Z,11.90
2022-10-30T04:27:43.860Z,11.50
2022-10-30T04:30:15.712Z,10.80
2022-10-30T04:32:50.219Z,10.40
2022-10-30T04:35:23.053Z,10.20
2022-10-30T04:37:59.213Z,11.00
2022-10-30T04:40:31.276Z,11.20
2022-10-30T04:43:04.985Z,11.20
2022-10-30T04:45:37.043Z,10.70
2022-10-30T04:50:38.918Z,10.60
2022-10-30T04:53:14.791Z,11.50
2022-10-30T04:55:46.448Z,11.80
2022-10-30T05:00:47.365Z,11.40
2022-10-30T05:03:22.941Z,11.60
2022-10-30T05:05:58.998Z,13.70
2022-10-30T05:08:29.581Z,12.90
2022-10-30T05:11:00.448Z,12.20
2022-10-30T05:13:32.363Z,12.20
2022-10-30T05:16:02.850Z,12.60
2022-10-30T05:18:33.194Z,13.00
2022-10-30T05:21:06.224Z,12.90
2022-10-30T05:23:36.596Z,12.30
2022-10-30T05:26:07.681Z,13.50
2022-10-30T05:28:38.353Z,12.90
2022-10-30T05:31:08.976Z,12.80
2022-10-30T05:33:59.593Z,12.40
2022-10-30T05:36:32.371Z,12.00
2022-10-30T05:39:03.066Z,12.00
2022-10-30T05:41:39.284Z,13.30
2022-10-30T05:44:09.677Z,12.20
2022-10-30T05:46:40.949Z,12.20
2022-10-30T05:49:32.076Z,11.80
2022-10-30T05:52:02.656Z,13.00
2022-10-30T05:54:33.914Z,13.60
2022-10-30T05:57:13.720Z,13.90
2022-10-30T05:59:44.341Z,13.20
2022-10-30T06:02:14.765Z,14.00
2022-10-30T06:04:45.716Z,12.80
2022-10-30T06:07:17.203Z,13.20
2022-10-30T06:09:47.587Z,11.60
2022-10-30T06:12:39.692Z,11.90
2022-10-30T06:15:18.607Z,11.40
2022-10-30T06:17:49.678Z,11.80
2022-10-30T06:20:40.365Z,11.20
2022-10-30T06:23:29.202Z,13.10
2022-10-30T06:26:05.438Z,11.70
2022-10-30T06:28:59.447Z,13.10
2022-10-30T06:31:29.788Z,14.60
2022-10-30T06:34:00.349Z,13.90
2022-10-30T06:36:31.772Z,12.60
2022-10-30T06:39:19.719Z,12.10
2022-10-30T06:42:05.217Z,11.70
2022-10-30T06:44:56.764Z,11.50
2022-10-30T06:47:27.251Z,12.40
2022-10-30T06:49:57.651Z,14.50
2022-10-30T06:52:28.188Z,14.60
2022-10-30T06:54:58.918Z,14.80
2022-10-30T06:57:58.992Z,13.60
2022-10-30T07:00:47.199Z,13.50
2022-10-30T07:03:20.827Z,13.10
2022-10-30T07:05:52.483Z,14.40
2022-10-30T07:08:22.847Z,15.10
2022-10-30T07:10:53.319Z,14.60
2022-10-30T07:13:48.238Z,14.40
2022-10-30T07:16:51.211Z,12.50
2022-10-30T07:19:21.659Z,12.60
2022-10-30T07:21:52.295Z,11.00
2022-10-30T07:24:22.974Z,11.80
2022-10-30T07:27:13.752Z,12.90
2022-10-30T07:30:04.595Z,12.80
2022-10-30T07:32:58.176Z,14.00
2022-10-30T07:35:47.814Z,12.50
2022-10-30T07:38:32.458Z,15.40
2022-10-30T07:41:13.723Z,14.30
2022-10-30T07:43:53.186Z,14.80
2022-10-30T07:46:39.003Z,15.00
2022-10-30T07:49:29.739Z,16.30
2022-10-30T07:52:11.856Z,16.40
2022-10-30T07:54:47.828Z,16.50
2022-10-30T07:57:39.750Z,17.50
2022-10-30T08:03:09.795Z,14.80
2022-10-30T08:05:47.616Z,15.50
2022-10-30T08:08:24.717Z,18.40
2022-10-30T08:11:03.997Z,16.00
2022-10-30T08:13:34.618Z,19.30
2022-10-30T08:16:05.197Z,18.40
2022-10-30T08:18:38.738Z,19.80
2022-10-30T08:21:09.388Z,19.80
2022-10-30T08:23:39.922Z,20.50
2022-10-30T08:26:14.998Z,20.90
2022-10-30T08:28:45.351Z,18.20
2022-10-30T08:31:15.781Z,19.30
2022-10-30T08:34:05.340Z,19.60
2022-10-30T08:36:52.935Z,16.70
2022-10-30T08:39:23.417Z,17.50
2022-10-30T08:42:03.459Z,17.40
2022-10-30T08:44:40.365Z,16.90
2022-10-30T08:47:19.939Z,16.30
2022-10-30T08:49:50.578Z,15.80
2022-10-30T08:52:23.512Z,17.70
2022-10-30T08:54:58.257Z,17.90
2022-10-30T08:57:29.881Z,16.50
2022-10-30T09:00:00.928Z,17.10
2022-10-30T09:03:03.941Z,16.50
2022-10-30T09:05:53.032Z,17.70
2022-10-30T09:08:52.358Z,16.40
2022-10-30T09:11:43.957Z,15.70
2022-10-30T09:14:15.666Z,16.00
2022-10-30T09:16:46.189Z,14.60
2022-10-30T09:19:18.990Z,15.90
2022-10-30T09:21:49.938Z,14.10
2022-10-30T09:24:20.322Z,14.00
2022-10-30T09:26:53.657Z,14.70
2022-10-30T09:29:29.299Z,13.50
2022-10-30T09:32:10.466Z,13.40
2022-10-30T09:35:04.574Z,12.90
2022-10-30T09:37:40.935Z,12.10
2022-10-30T09:40:24.684Z,12.30
2022-10-30T09:43:02.360Z,10.70
2022-10-30T09:46:05.917Z,11.90
2022-10-30T09:48:59.409Z,11.40
2022-10-30T09:52:01.402Z,13.90
2022-10-30T09:57:16.982Z,14.80
2022-10-30T10:00:03.462Z,16.00
2022-10-30T10:02:38.243Z,15.60
2022-10-30T10:05:20.426Z,17.20
2022-10-30T10:08:15.584Z,19.30
2022-10-30T10:11:09.841Z,16.60
2022-10-30T10:13:46.665Z,15.60
2022-10-30T10:16:20.913Z,18.70
2022-10-30T10:18:59.633Z,17.00
2022-10-30T10:21:34.132Z,17.00
2022-10-30T10:24:18.259Z,16.90
2022-10-30T10:26:57.461Z,17.50
2022-10-30T10:29:50.740Z,17.20
2022-10-30T10:32:46.016Z,19.20
2022-10-30T10:35:44.604Z,15.90
2022-10-30T10:38:26.150Z,15.70
2022-10-30T10:41:09.335Z,15.40
2022-10-30T10:43:59.710Z,16.10
2022-10-30T10:46:44.855Z,14.60
2022-10-30T10:49:40.180Z,15.90
2022-10-30T10:52:15.749Z,13.70
2022-10-30T10:54:50.528Z,12.00
2022-10-30T10:57:28.346Z,12.00
2022-10-30T11:00:03.679Z,12.60
2022-10-30T11:02:41.338Z,11.90
2022-10-30T11:05:25.658Z,11.50
2022-10-30T11:07:59.457Z,10.70
2022-10-30T11:10:30.340Z,11.70
2022-10-30T11:13:02.791Z,11.30
2022-10-30T11:15:41.169Z,11.40
2022-10-30T11:18:14.654Z,12.70
2022-10-30T11:20:52.707Z,10.60
2022-10-30T11:23:39.997Z,12.20
2022-10-30T11:26:31.875Z,11.50
2022-10-30T11:29:07.197Z,12.80
2022-10-30T11:31:40.533Z,11.70
2022-10-30T11:34:25.814Z,12.00
2022-10-30T11:36:56.942Z,12.40
2022-10-30T11:42:04.373Z,12.30
2022-10-30T11:44:38.992Z,12.50
2022-10-30T11:47:11.443Z,12.70
2022-10-30T11:49:47.994Z,12.90
2022-10-30T11:52:22.341Z,13.70
2022-10-30T11:54:55.912Z,12.40
2022-10-30T11:57:38.727Z,13.10
2022-10-30T12:00:18.212Z,14.30
2022-10-30T12:02:52.427Z,12.70
2022-10-30T12:05:44.849Z,12.70
2022-10-30T12:08:22.508Z,12.20
2022-10-30T12:11:03.846Z,13.00
2022-10-30T12:13:39.972Z,13.10
2022-10-30T12:16:19.024Z,12.90
2022-10-30T12:19:02.598Z,11.90
2022-10-30T12:21:37.805Z,11.80
2022-10-30T12:24:17.345Z,10.80
2022-10-30T12:26:52.230Z,13.10
2022-10-30T12:29:41.732Z,10.80
2022-10-30T12:32:19.703Z,11.30
2022-10-30T12:34:57.585Z,10.90
2022-10-30T12:37:33.458Z,10.60
2022-10-30T12:40:11.706Z,10.20
2022-10-30T12:42:46.682Z,8.90
2022-10-30T12:45:21.603Z,10.70
2022-10-30T12:47:57.454Z,10.70
2022-10-30T12:50:33.673Z,10.90
2022-10-30T12:53:15.372Z,11.40
2022-10-30T12:55:50.500Z,11.40
2022-10-30T12:58:28.938Z,11.40
2022-10-30T13:01:08.147Z,10.80
2022-10-30T13:03:42.881Z,12.10
2022-10-30T13:06:17.591Z,9.70
2022-10-30T13:09:00.467Z,10.00
2022-10-30T13:11:41.894Z,10.30
2022-10-30T13:14:17.679Z,10.40
2022-10-30T13:16:48.659Z,9.70
2022-10-30T13:19:19.188Z,9.90
2022-10-30T13:22:00.853Z,11.00
2022-10-30T13:24:43.910Z,9.60
2022-10-30T13:27:18.846Z,10.50
2022-10-30T13:29:55.704Z,9.20
2022-10-30T13:32:40.048Z,9.20
2022-10-30T13:35:25.024Z,9.80
2022-10-30T13:38:01.698Z,8.50
2022-10-30T13:40:41.625Z,8.70
2022-10-30T13:43:24.581Z,7.60
2022-10-30T13:46:14.038Z,8.10
2022-10-30T13:48:59.482Z,9.40
2022-10-30T13:51:44.560Z,8.40
2022-10-30T13:54:22.247Z,9.50
2022-10-30T13:56:55.833Z,8.80
2022-10-30T13:59:41.518Z,8.10
2022-10-30T14:02:26.363Z,7.80
2022-10-30T14:05:02.614Z,9.40
2022-10-30T14:07:39.506Z,8.00
2022-10-30T14:10:17.546Z,7.80
2022-10-30T14:12:53.080Z,8.10
2022-10-30T14:15:32.631Z,8.70
2022-10-30T14:18:26.591Z,8.40
2022-10-30T14:20:59.142Z,7.70
2022-10-30T14:23:35.406Z,8.50
2022-10-30T14:26:22.995Z,8.50
2022-10-30T14:28:57.429Z,7.80
2022-10-30T14:31:38.169Z,7.50
2022-10-30T14:34:43.229Z,9.10
2022-10-30T14:37:14.140Z,9.00
2022-10-30T14:42:21.926Z,10.00
2022-10-30T14:45:03.810Z,9.10
2022-10-30T14:47:56.542Z,7.50
2022-10-30T14:50:42.299Z,9.10
2022-10-30T14:53:28.532Z,8.00
2022-10-30T14:56:06.268Z,10.00
2022-10-30T14:58:38.496Z,9.60
2022-10-30T15:01:33.120Z,8.70
2022-10-30T15:04:15.888Z,10.70
2022-10-30T15:07:04.195Z,8.70
2022-10-30T15:09:46.925Z,8.70
2022-10-30T15:12:40.756Z,7.30
2022-10-30T15:15:16.864Z,7.00
2022-10-30T15:17:50.670Z,7.30
2022-10-30T15:20:23.665Z,6.10
2022-10-30T15:22:57.556Z,6.70
2022-10-30T15:25:38.020Z,6.70
2022-10-30T15:28:14.895Z,6.70
2022-10-30T15:31:01.164Z,7.30
2022-10-30T15:33:32.974Z,6.60
2022-10-30T15:36:03.552Z,7.70
2022-10-30T15:38:34.153Z,6.20
2022-10-30T15:41:05.529Z,6.40
2022-10-30T15:43:39.820Z,6.30
2022-10-30T15:46:13.059Z,5.50
2022-10-30T15:48:47.986Z,6.20
2022-10-30T15:51:23.126Z,5.60
2022-10-30T15:53:57.311Z,5.80
2022-10-30T15:56:32.906Z,5.70
2022-10-30T15:59:07.158Z,5.90
2022-10-30T16:01:45.919Z,5.50
2022-10-30T16:04:19.289Z,5.30
2022-10-30T16:06:54.759Z,5.50
2022-10-30T16:09:26.320Z,5.80
2022-10-30T16:12:00.222Z,5.70
2022-10-30T16:14:32.928Z,5.90
2022-10-30T16:17:03.820Z,5.50
2022-10-30T16:19:46.960Z,5.10
2022-10-30T16:22:24.829Z,5.30
2022-10-30T16:24:56.687Z,5.50
2022-10-30T16:27:27.863Z,5.20
2022-10-30T16:30:00.942Z,5.70
2022-10-30T16:32:32.876Z,6.00
2022-10-30T16:35:05.419Z,5.60
2022-10-30T16:37:39.309Z,6.20
2022-10-30T16:40:15.964Z,6.10
2022-10-30T16:42:55.240Z,6.50
2022-10-30T16:46:11.894Z,5.90
2022-10-30T16:48:46.147Z,5.50
2022-10-30T16:51:19.135Z,7.30
2022-10-30T16:53:52.217Z,6.00
2022-10-30T16:56:25.815Z,5.80
2022-10-30T16:59:07.134Z,5.70
2022-10-30T17:01:38.267Z,6.90
2022-10-30T17:06:43.493Z,7.50
2022-10-30T17:09:25.851Z,6.70
2022-10-30T17:12:13.653Z,6.40
2022-10-30T17:15:04.227Z,7.20
2022-10-30T17:17:37.404Z,8.20
2022-10-30T17:20:15.104Z,7.00
2022-10-30T17:22:47.574Z,6.20
2022-10-30T17:25:33.656Z,5.80
2022-10-30T17:28:04.413Z,6.60
2022-10-30T17:30:39.276Z,6.20
2022-10-30T17:33:36.267Z,6.40
2022-10-30T17:36:08.196Z,6.70
2022-10-30T17:38:38.560Z,8.30
2022-10-30T17:41:14.561Z,7.80
2022-10-30T17:43:53.080Z,8.30
2022-10-30T17:46:24.052Z,9.70
2022-10-30T17:48:54.838Z,7.70
2022-10-30T17:51:25.254Z,8.30
2022-10-30T17:53:55.613Z,7.50
2022-10-30T17:56:29.312Z,7.90
2022-10-30T17:58:59.787Z,8.50
2022-10-30T18:01:30.391Z,10.00
2022-10-30T18:04:00.805Z,10.80
2022-10-30T18:06:31.521Z,8.70
2022-10-30T18:09:01.894Z,7.60
2022-10-30T18:11:32.347Z,7.00
2022-10-30T18:14:02.798Z,8.50
2022-10-30T18:16:36.056Z,8.90
2022-10-30T18:19:10.318Z,9.30
2022-10-30T18:21:41.343Z,10.00
2022-10-30T18:24:14.788Z,8.50
2022-10-30T18:26:45.557Z,8.10
2022-10-30T18:29:16.114Z,8.50
2022-10-30T18:31:46.934Z,8.40
2022-10-30T18:34:21.343Z,8.10
2022-10-30T18:36:52.190Z,8.80
2022-10-30T18:39:22.620Z,9.20
2022-10-30T18:41:53.705Z,8.30
2022-10-30T18:44:24.073Z,7.80
2022-10-30T18:47:03.273Z,8.20
2022-10-30T18:49:34.460Z,7.00
2022-10-30T18:52:05.123Z,8.30
2022-10-30T18:54:35.541Z,7.50
2022-10-30T18:57:06.598Z,7.50
2022-10-30T18:59:39.948Z,7.70
2022-10-30T19:02:21.685Z,8.00
2022-10-30T19:04:52.423Z,7.30
2022-10-30T19:07:22.874Z,8.30
2022-10-30T19:09:53.385Z,8.30
2022-10-30T19:12:23.951Z,8.90
2022-10-30T19:15:01.507Z,7.70
2022-10-30T19:17:31.981Z,7.60
2022-10-30T19:20:02.360Z,7.50
2022-10-30T19:22:33.034Z,7.90
2022-10-30T19:25:08.012Z,7.60
2022-10-30T19:27:38.769Z,7.90
2022-10-30T19:30:11.865Z,7.90
2022-10-30T19:32:42.536Z,8.10
2022-10-30T19:35:14.520Z,7.10
2022-10-30T19:37:45.755Z,8.70
2022-10-30T19:40:23.945Z,7.20
2022-10-30T19:42:55.372Z,6.80
2022-10-30T19:47:57.686Z,6.70
2022-10-30T19:50:30.613Z,7.10
2022-10-30T19:53:02.808Z,7.10
2022-10-30T19:55:36.216Z,6.50
2022-10-30T19:58:08.047Z,7.30
2022-10-30T20:00:40.400Z,6.20
2022-10-30T20:03:13.451Z,7.30
2022-10-30T20:05:47.080Z,6.90
2022-10-30T20:08:19.199Z,7.30
2022-10-30T20:10:54.319Z,6.30
2022-10-30T20:13:25.968Z,6.50
2022-10-30T20:15:57.749Z,7.20
2022-10-30T20:18:31.526Z,6.30
2022-10-30T20:21:03.502Z,6.90
2022-10-30T20:23:34.347Z,6.60
2022-10-30T20:26:08.229Z,7.10
2022-10-30T20:28:41.525Z,6.10
2022-10-30T20:31:13.573Z,6.20
2022-10-30T20:33:44.258Z,6.50
2022-10-30T20:36:15.716Z,5.80
2022-10-30T20:38:46.181Z,6.50
2022-10-30T20:41:24.228Z,5.30
2022-10-30T20:43:55.147Z,6.50
2022-10-30T20:46:25.495Z,6.70
2022-10-30T20:49:01.289Z,6.70
2022-10-30T20:51:37.832Z,6.30
2022-10-30T20:54:08.490Z,6.10
2022-10-30T20:56:38.978Z,6.70
2022-10-30T20:59:09.571Z,6.30
2022-10-30T21:01:40.240Z,5.90
2022-10-30T21:04:11.008Z,5.80
2022-10-30T21:06:41.578Z,5.50
2022-10-30T21:09:11.950Z,5.90
2022-10-30T21:11:42.802Z,5.90
2022-10-30T21:14:13.276Z,6.00
2022-10-30T21:16:43.569Z,6.10
2022-10-30T21:19:13.952Z,5.90
2022-10-30T21:21:44.416Z,5.60
2022-10-30T21:24:15.226Z,6.20
2022-10-30T21:26:45.654Z,5.80
2022-10-30T21:29:16.362Z,5.90
2022-10-30T21:31:46.859Z,6.10
2022-10-30T21:34:17.969Z,5.90
2022-10-30T21:36:48.541Z,6.30
2022-10-30T21:39:18.902Z,6.30
2022-10-30T21:41:49.441Z,5.50
2022-10-30T21:44:19.949Z,6.60
2022-10-30T21:46:52.096Z,6.10
2022-10-30T21:49:22.569Z,6.00
2022-10-30T21:51:52.952Z,6.00
2022-10-30T21:54:23.632Z,5.20
2022-10-30T21:56:54.101Z,5.60
2022-10-30T21:59:24.803Z,5.20
2022-10-30T22:01:55.175Z,5.30
2022-10-30T22:04:26.094Z,5.90
2022-10-30T22:06:56.577Z,5.70
2022-10-30T22:09:26.908Z,5.50
2022-10-30T22:11:57.329Z,5.90
2022-10-30T22:14:28.515Z,6.10
2022-10-30T22:16:58.860Z,6.50
2022-10-30T22:19:29.250Z,5.00
2022-10-30T22:21:59.717Z,5.90
2022-10-30T22:24:30.175Z,6.00
2022-10-30T22:27:00.603Z,6.10
2022-10-30T22:29:30.879Z,5.20
2022-10-30T22:32:01.396Z,7.30
2022-10-30T22:34:31.813Z,6.40
2022-10-30T22:37:02.301Z,6.20
2022-10-30T22:39:32.760Z,7.90
2022-10-30T22:42:03.169Z,6.80
2022-10-30T22:44:33.404Z,6.90
2022-10-30T22:47:03.806Z,6.70
2022-10-30T22:49:34.171Z,7.10
2022-10-30T22:52:04.804Z,6.60
2022-10-30T22:54:35.173Z,6.30
2022-10-30T22:57:05.683Z,7.20
2022-10-30T22:59:36.173Z,6.90
2022-10-30T23:02:06.739Z,7.10
2022-10-30T23:04:37.365Z,7.10
2022-10-30T23:07:07.733Z,6.60
2022-10-30T23:09:38.271Z,7.30
2022-10-30T23:12:09.056Z,8.40
2022-10-30T23:14:39.389Z,7.20
2022-10-30T23:17:09.783Z,7.10
2022-10-30T23:19:40.227Z,7.80
2022-10-30T23:22:10.545Z,6.20
2022-10-30T23:24:41.076Z,7.10
2022-10-30T23:27:11.295Z,7.80
2022-10-30T23:29:41.560Z,7.20
2022-10-30T23:32:11.912Z,6.90
2022-10-30T23:34:42.193Z,7.50
2022-10-30T23:37:12.511Z,7.40
2022-10-30T23:39:42.939Z,7.60
2022-10-30T23:42:13.238Z,8.10
2022-10-30T23:44:43.533Z,7.60
2022-10-30T23:47:13.805Z,8.00
2022-10-30T23:49:44.295Z,7.50
2022-10-30T23:52:14.621Z,7.60
2022-10-30T23:54:45.089Z,7.40
2022-10-30T23:57:15.884Z,8.20
2022-10-30T23:59:47.035Z,7.50
